St Peter — C6YR4 — position and weather

sailwx.info

Track history (hours):
 
Tides and Currents Weather Stations Pressure Air Temp Water Temp Dewpoint Dewpoint Depression Visibility Wind Speed Wind Dir Waves Ship Positions

St Peter

Last reported at 2018-Feb-11 08:38 UTC. Time now 2018-Feb-19 02:25 UTC.
Position N 40°59' E 028°60'.

Length 180 m; draft 5.9 m.

Type: Cargo ship. MMSI: 311042700.

Date/timePositionNaut miles runAvg speedWind from/ knotsBaromVisibWave heightAir tempDewpointWater temp
2018-Feb-11 08:38N 40°59' E 028°60'1 8.1
2018-Feb-11 08:29N 40°58' E 028°59'5 8.9
2018-Feb-11 07:57N 40°54' E 028°55'  
2018-Feb-08 01:24N 32°54' E 030°35'512.4
2018-Feb-08 00:59N 32°50' E 030°39'1712.4
2018-Feb-07 23:37N 32°37' E 030°52'112.4
2018-Feb-07 23:30N 32°36' E 030°53'712.3
2018-Feb-07 22:55N 32°30' E 030°59'912.3
2018-Feb-07 22:10N 32°23' E 031°06'212.2
2018-Feb-07 21:58N 32°22' E 031°08'712.2
2018-Feb-07 21:25N 32°17' E 031°13'  
Track history (hours):
 
Tides and Currents Weather Stations Pressure Air Temp Water Temp Dewpoint Dewpoint Depression Visibility Wind Speed Wind Dir Waves Ship Positions

St Peter

Last reported at 2018-Feb-11 08:38 UTC. Time now 2018-Feb-19 02:25 UTC.
Position N 40°59' E 028°60'.

Length 180 m; draft 5.9 m.

Type: Cargo ship. MMSI: 311042700.

Date/timePositionNaut miles runAvg speedWind from/ knotsBaromVisibWave heightAir tempDewpointWater temp
2018-Feb-11 08:38N 40°59' E 028°60'1 8.1
2018-Feb-11 08:29N 40°58' E 028°59'5 8.9
2018-Feb-11 07:57N 40°54' E 028°55'  
2018-Feb-08 01:24N 32°54' E 030°35'512.4
2018-Feb-08 00:59N 32°50' E 030°39'1712.4
2018-Feb-07 23:37N 32°37' E 030°52'112.4
2018-Feb-07 23:30N 32°36' E 030°53'712.3
2018-Feb-07 22:55N 32°30' E 030°59'912.3
2018-Feb-07 22:10N 32°23' E 031°06'212.2
2018-Feb-07 21:58N 32°22' E 031°08'712.2
2018-Feb-07 21:25N 32°17' E 031°13'  

Dump ship's entire track history